Time;durP1;ratioP1;P1;durP2;ratioP2;P2;SDS_P1;SDS_P2;PMS_P1;PMS_P2;Temp;Humidity;BMP_temperature;BMP_pressure;BME280_temperature;BME280_humidity;BME280_pressure;Samples;Min_cycle;Max_cycle;Signal;HPM_P1;HPM_P2
2022/11/01 00:00:52;;;;;;;21.25;13.52;;;;;;;;;;4815184;29;20033;-64
2022/11/01 00:03:18;;;;;;;;;;;;;;;;;;4816733;29;20041;-64
2022/11/01 00:05:45;;;;;;;26.73;13.90;;;;;;;;;;4817481;29;20245;-64
2022/11/01 00:08:11;;;;;;;23.45;13.93;;;;;;;;;;4812336;29;20383;-64
2022/11/01 00:10:37;;;;;;;;;;;;;;;;;;4817199;29;20370;-64
2022/11/01 00:13:03;;;;;;;23.15;13.18;;;;;;;;;;4815315;29;19920;-62
2022/11/01 00:15:29;;;;;;;21.25;13.75;;;;;;;;;;4813862;29;20033;-62
2022/11/01 00:17:55;;;;;;;;;;;;;;;;;;4814916;29;20103;-64
2022/11/01 00:20:21;;;;;;;25.45;13.63;;;;;;;;;;4811098;29;20431;-64
2022/11/01 00:22:47;;;;;;;22.65;12.93;;;;;;;;;;4812750;29;20040;-64
2022/11/01 00:25:13;;;;;;;;;;;;;;;;;;4813042;29;20046;-61
2022/11/01 00:27:39;;;;;;;22.90;12.82;;;;;;;;;;4812459;29;20269;-64
2022/11/01 00:30:05;;;;;;;;;;;;;;;;;;4808371;29;20030;-62
2022/11/01 00:32:31;;;;;;;18.52;12.10;;;;;;;;;;4812728;29;19932;-64
2022/11/01 00:34:57;;;;;;;20.35;12.95;;;;;;;;;;4813875;29;20042;-62
2022/11/01 00:37:23;;;;;;;;;;;;;;;;;;4811285;29;20038;-63
2022/11/01 00:39:50;;;;;;;16.15;11.50;;;;;;;;;;4813224;29;20390;-62
2022/11/01 00:42:16;;;;;;;21.05;13.38;;;;;;;;;;4811575;29;20425;-62
2022/11/01 00:44:42;;;;;;;;;;;;;;;;;;4813662;29;20282;-64
2022/11/01 00:47:08;;;;;;;19.48;12.43;;;;;;;;;;4823829;29;19935;-64
2022/11/01 00:49:34;;;;;;;18.77;11.75;;;;;;;;;;4812884;29;20078;-64
2022/11/01 00:52:00;;;;;;;20.00;11.77;;;;;;;;;;4814853;29;20230;-63
2022/11/01 00:54:26;;;;;;;;;;;;;;;;;;4813651;29;20136;-63
2022/11/01 00:56:52;;;;;;;18.88;12.45;;;;;;;;;;4830028;29;20210;-64
2022/11/01 00:59:19;;;;;;;;;;;;;;;;;;4816584;29;20033;-64
2022/11/01 01:01:45;;;;;;;20.27;13.30;;;;;;;;;;4820349;29;20322;-63
2022/11/01 01:04:11;;;;;;;20.85;12.77;;;;;;;;;;4811398;29;20573;-63
2022/11/01 01:06:37;;;;;;;;;;;;;;;;;;4817382;29;20113;-64
2022/11/01 01:09:05;;;;;;;20.55;11.85;;;;;;;;;;4820788;29;19916;-63
2022/11/01 01:11:31;;;;;;;20.85;12.55;;;;;;;;;;4814169;29;20048;-63
2022/11/01 01:13:57;;;;;;;;;;;;;;;;;;4815738;29;20485;-64
2022/11/01 01:16:23;;;;;;;22.08;11.35;;;;;;;;;;4809644;29;20027;-63
2022/11/01 01:18:50;;;;;;;19.38;12.63;;;;;;;;;;4817290;29;20030;-64
2022/11/01 01:21:16;;;;;;;19.20;11.93;;;;;;;;;;4811614;29;20137;-63
2022/11/01 01:23:42;;;;;;;21.02;12.57;;;;;;;;;;4814081;29;20942;-64
2022/11/01 01:26:08;;;;;;;;;;;;;;;;;;4810131;29;20068;-63
2022/11/01 01:28:35;;;;;;;19.05;12.02;;;;;;;;;;4812511;29;19917;-63
2022/11/01 01:31:08;;;;;;;23.27;13.07;;;;;;;;;;4812517;29;20106;-62
2022/11/01 01:33:34;;;;;;;18.23;12.25;;;;;;;;;;4813824;29;20046;-64
2022/11/01 01:36:00;;;;;;;;;;;;;;;;;;4816701;29;20040;-64
2022/11/01 01:38:26;;;;;;;26.13;13.90;;;;;;;;;;4810937;29;20641;-64
2022/11/01 01:40:52;;;;;;;;;;;;;;;;;;4813595;29;20029;-62
2022/11/01 01:43:18;;;;;;;21.52;13.25;;;;;;;;;;4809565;29;19916;-65
2022/11/01 01:45:44;;;;;;;17.98;12.63;;;;;;;;;;4815613;29;20026;-64
2022/11/01 01:48:10;;;;;;;;;;;;;;;;;;4815710;29;20067;-62
2022/11/01 01:50:37;;;;;;;20.55;12.75;;;;;;;;;;4811804;29;19916;-64
2022/11/01 01:53:03;;;;;;;;;;;;;;;;;;4817374;29;20721;-62
2022/11/01 01:55:49;;;;;;;20.67;11.75;;;;;;;;;;4814481;29;19925;-63
2022/11/01 01:58:17;;;;;;;18.52;11.40;;;;;;;;;;4816633;29;20423;-62
2022/11/01 02:00:44;;;;;;;17.23;10.50;;;;;;;;;;4810299;29;20129;-63
2022/11/01 02:03:11;;;;;;;21.83;10.45;;;;;;;;;;4807804;29;20072;-62
2022/11/01 02:06:06;;;;;;;18.73;11.93;;;;;;;;;;4817698;29;20544;-62
2022/11/01 02:08:33;;;;;;;18.38;9.70;;;;;;;;;;4804827;29;20046;-62
2022/11/01 02:11:00;;;;;;;22.98;10.95;;;;;;;;;;4820180;29;20116;-63
2022/11/01 02:13:27;;;;;;;17.70;10.65;;;;;;;;;;4817663;29;20211;-62
2022/11/01 02:16:12;;;;;;;20.17;12.18;;;;;;;;;;4817698;29;20118;-62
2022/11/01 02:18:41;;;;;;;17.02;11.68;;;;;;;;;;4817067;29;20026;-62
2022/11/01 02:21:46;;;;;;;18.40;12.43;;;;;;;;;;4816494;29;20089;-62
2022/11/01 02:24:30;;;;;;;20.63;11.50;;;;;;;;;;4786547;29;20042;-62
2022/11/01 02:27:01;;;;;;;18.98;12.02;;;;;;;;;;4792192;29;20128;-65
2022/11/01 02:29:30;;;;;;;17.75;10.27;;;;;;;;;;4793369;29;20557;-62
2022/11/01 02:32:02;;;;;;;17.90;9.73;;;;;;;;;;4797739;29;20053;-62
2022/11/01 02:34:32;;;;;;;16.05;8.57;;;;;;;;;;4796198;29;20056;-62
2022/11/01 02:37:02;;;;;;;19.70;10.85;;;;;;;;;;4772181;29;20038;-62
2022/11/01 02:39:39;;;;;;;20.85;12.05;;;;;;;;;;4787526;29;20097;-62
2022/11/01 02:42:18;;;;;;;21.05;13.30;;;;;;;;;;4770808;29;20158;-62
2022/11/01 02:44:48;;;;;;;20.67;12.95;;;;;;;;;;4797909;29;20070;-63
2022/11/01 02:47:15;;;;;;;24.55;13.95;;;;;;;;;;4790640;29;20465;-63
2022/11/01 02:49:46;;;;;;;18.77;13.43;;;;;;;;;;4796558;29;20054;-62
2022/11/01 02:52:15;;;;;;;24.25;16.52;;;;;;;;;;4787561;29;20046;-63
2022/11/01 02:55:07;;;;;;;21.88;14.45;;;;;;;;;;4798545;29;20439;-63
2022/11/01 02:57:36;;;;;;;22.10;15.02;;;;;;;;;;4758828;29;20145;-62
2022/11/01 03:00:18;;;;;;;22.15;14.27;;;;;;;;;;4772786;29;20547;-62
2022/11/01 03:02:45;;;;;;;22.45;13.02;;;;;;;;;;4768102;29;20053;-63
2022/11/01 03:05:16;;;;;;;24.63;14.32;;;;;;;;;;4769924;29;20077;-63
2022/11/01 03:07:47;;;;;;;24.67;13.80;;;;;;;;;;4771978;29;21120;-63
2022/11/01 03:10:13;;;;;;;22.35;13.48;;;;;;;;;;4770339;29;20039;-63
2022/11/01 03:12:49;;;;;;;19.38;12.05;;;;;;;;;;4776483;29;20394;-63
2022/11/01 03:15:22;;;;;;;25.60;11.68;;;;;;;;;;4764457;29;20042;-62
2022/11/01 03:17:56;;;;;;;19.35;9.68;;;;;;;;;;4772383;29;20263;-62
2022/11/01 03:20:46;;;;;;;17.17;9.15;;;;;;;;;;4766785;29;20055;-62
2022/11/01 03:23:12;;;;;;;18.20;8.50;;;;;;;;;;4755101;29;20602;-62
2022/11/01 03:25:43;;;;;;;12.70;7.47;;;;;;;;;;4764614;29;20035;-62
2022/11/01 03:28:09;;;;;;;17.00;8.73;;;;;;;;;;4764965;29;20659;-62
2022/11/01 03:30:35;;;;;;;;;;;;;;;;;;4766595;29;20027;-62
2022/11/01 03:33:01;;;;;;;18.85;8.77;;;;;;;;;;4773246;29;19967;-62
2022/11/01 03:35:27;;;;;;;;;;;;;;;;;;4808974;29;20053;-63
2022/11/01 03:37:55;;;;;;;20.17;8.48;;;;;;;;;;4817417;29;19916;-63
2022/11/01 03:40:23;;;;;;;17.45;8.23;;;;;;;;;;4815088;29;20414;-63
2022/11/01 03:42:51;;;;;;;15.07;8.55;;;;;;;;;;4816101;29;20466;-63
2022/11/01 03:45:22;;;;;;;15.90;8.32;;;;;;;;;;4815767;29;20475;-62
2022/11/01 03:47:48;;;;;;;14.75;8.48;;;;;;;;;;4816602;29;20186;-63
2022/11/01 03:50:14;;;;;;;;;;;;;;;;;;4813215;29;20515;-63
2022/11/01 03:52:40;;;;;;;20.13;8.70;;;;;;;;;;4824119;29;19920;-62
2022/11/01 03:55:16;;;;;;;;;;;;;;;;;;4815051;29;20046;-62
2022/11/01 03:57:53;;;;;;;15.63;8.38;;;;;;;;;;4809657;29;19916;-62
2022/11/01 04:00:19;;;;;;;18.13;8.90;;;;;;;;;;4815876;29;20078;-63
2022/11/01 04:02:46;;;;;;;15.60;8.65;;;;;;;;;;4820711;29;20042;-62
2022/11/01 04:05:12;;;;;;;16.17;8.38;;;;;;;;;;4812079;29;20034;-63
2022/11/01 04:07:39;;;;;;;17.25;9.00;;;;;;;;;;4832083;29;20054;-63
2022/11/01 04:10:05;;;;;;;15.80;8.48;;;;;;;;;;4813562;29;20058;-63
2022/11/01 04:12:31;;;;;;;16.38;8.98;;;;;;;;;;4828549;29;20038;-63
2022/11/01 04:20:32;;;;;;;16.30;8.88;;;;;;;;;;4817591;29;20052;-62
2022/11/01 04:23:03;;;;;;;16.75;9.18;;;;;;;;;;4817358;29;20022;-62
2022/11/01 04:25:30;;;;;;;20.30;10.05;;;;;;;;;;4816365;29;20128;-62
2022/11/01 04:27:56;;;;;;;16.75;9.55;;;;;;;;;;4814671;29;20057;-63
2022/11/01 04:30:26;;;;;;;15.25;9.15;;;;;;;;;;4814105;29;20034;-62
2022/11/01 04:32:52;;;;;;;17.23;9.13;;;;;;;;;;4812715;29;20073;-62
2022/11/01 04:35:18;;;;;;;16.70;9.50;;;;;;;;;;4812862;29;20039;-62
2022/11/01 04:37:45;;;;;;;18.65;9.93;;;;;;;;;;4819118;29;20249;-62
2022/11/01 04:40:12;;;;;;;17.05;9.48;;;;;;;;;;4809184;29;20534;-62
2022/11/01 04:42:38;;;;;;;16.25;8.80;;;;;;;;;;4817727;29;20025;-62
2022/11/01 04:45:05;;;;;;;17.13;9.85;;;;;;;;;;4809908;29;20038;-62
2022/11/01 04:47:32;;;;;;;16.40;9.43;;;;;;;;;;4815182;29;20049;-62
2022/11/01 04:49:58;;;;;;;16.95;9.90;;;;;;;;;;4815062;29;20485;-62
2022/11/01 04:52:24;;;;;;;;;;;;;;;;;;4815417;29;20033;-62
2022/11/01 04:54:50;;;;;;;16.20;9.18;;;;;;;;;;4818305;29;20342;-65
2022/11/01 04:57:23;;;;;;;16.02;9.43;;;;;;;;;;4813564;29;20053;-63
2022/11/01 04:59:53;;;;;;;17.23;9.20;;;;;;;;;;4833871;29;20149;-64
2022/11/01 05:02:20;;;;;;;17.25;9.15;;;;;;;;;;4811464;29;20568;-63
2022/11/01 05:04:46;;;;;;;15.98;8.32;;;;;;;;;;4814136;29;20493;-64
2022/11/01 05:07:12;;;;;;;;;;;;;;;;;;4816325;29;20073;-62
2022/11/01 05:09:38;;;;;;;15.77;8.27;;;;;;;;;;4833940;29;19916;-63
2022/11/01 05:12:04;;;;;;;17.30;8.43;;;;;;;;;;4817274;29;20474;-63
2022/11/01 05:14:30;;;;;;;16.73;9.07;;;;;;;;;;4814650;29;20339;-62
2022/11/01 05:16:56;;;;;;;;;;;;;;;;;;4818897;29;20192;-62
2022/11/01 05:19:23;;;;;;;14.88;8.30;;;;;;;;;;4813944;29;20347;-66
2022/11/01 05:21:49;;;;;;;14.65;8.38;;;;;;;;;;4817025;29;20026;-63
2022/11/01 05:24:15;;;;;;;15.75;8.50;;;;;;;;;;4815289;29;20077;-63
2022/11/01 05:26:41;;;;;;;;;;;;;;;;;;4819239;29;21610;-62
2022/11/01 05:29:07;;;;;;;17.52;8.82;;;;;;;;;;4817202;29;20011;-62
2022/11/01 05:31:33;;;;;;;;;;;;;;;;;;4815438;29;20949;-63
2022/11/01 05:33:59;;;;;;;16.00;9.10;;;;;;;;;;4826668;29;19972;-63
2022/11/01 05:36:26;;;;;;;13.98;8.20;;;;;;;;;;4813115;29;20438;-62
2022/11/01 05:38:52;;;;;;;;;;;;;;;;;;4820074;29;20331;-63
2022/11/01 05:41:18;;;;;;;14.60;8.52;;;;;;;;;;4811708;29;20260;-62
2022/11/01 05:43:44;;;;;;;;;;;;;;;;;;4819090;29;20454;-62
2022/11/01 05:46:10;;;;;;;18.42;9.30;;;;;;;;;;4820045;29;19920;-62
2022/11/01 05:48:36;;;;;;;16.35;8.55;;;;;;;;;;4815276;29;20048;-63
2022/11/01 05:51:02;;;;;;;;;;;;;;;;;;4819448;29;20060;-63
2022/11/01 05:53:28;;;;;;;16.30;9.57;;;;;;;;;;4816989;29;20011;-62
2022/11/01 05:55:54;;;;;;;;;;;;;;;;;;4818515;29;20367;-63
2022/11/01 05:58:20;;;;;;;19.17;10.15;;;;;;;;;;4817245;29;20430;-62
2022/11/01 06:00:46;;;;;;;17.42;9.95;;;;;;;;;;4818766;29;20374;-63
2022/11/01 06:03:12;;;;;;;;;;;;;;;;;;4821755;29;20058;-63
2022/11/01 06:05:39;;;;;;;17.13;9.40;;;;;;;;;;4828024;29;19912;-62
2022/11/01 06:08:06;;;;;;;17.98;9.80;;;;;;;;;;4823045;29;20124;-63
2022/11/01 06:10:32;;;;;;;19.70;10.23;;;;;;;;;;4823352;29;20126;-65
2022/11/01 06:12:59;;;;;;;21.23;11.05;;;;;;;;;;4823993;29;20042;-63
2022/11/01 06:15:25;;;;;;;18.98;11.55;;;;;;;;;;4825465;29;20062;-63
2022/11/01 06:17:51;;;;;;;;;;;;;;;;;;4817787;29;20048;-63
2022/11/01 06:20:17;;;;;;;22.48;11.00;;;;;;;;;;4814143;29;19916;-63
2022/11/01 06:22:43;;;;;;;22.13;10.95;;;;;;;;;;4818255;29;20622;-63
2022/11/01 06:25:09;;;;;;;;;;;;;;;;;;4820289;29;20049;-62
2022/11/01 06:27:35;;;;;;;16.90;10.05;;;;;;;;;;4825136;29;19916;-62
2022/11/01 06:30:01;;;;;;;;;;;;;;;;;;4820945;29;20257;-64
2022/11/01 06:32:27;;;;;;;18.35;10.63;;;;;;;;;;4815887;29;20400;-63
2022/11/01 06:34:53;;;;;;;;;;;;;;;;;;4820275;29;20046;-62
2022/11/01 06:37:19;;;;;;;16.42;9.55;;;;;;;;;;4818238;29;20408;-65
2022/11/01 06:39:45;;;;;;;;;;;;;;;;;;4819090;29;20029;-62
2022/11/01 06:42:11;;;;;;;17.30;9.00;;;;;;;;;;4811966;29;19923;-64
2022/11/01 06:44:37;;;;;;;17.55;10.02;;;;;;;;;;4812698;29;21015;-64
2022/11/01 06:47:03;;;;;;;;;;;;;;;;;;4815156;29;20097;-64
2022/11/01 06:49:30;;;;;;;16.20;8.57;;;;;;;;;;4815236;29;19999;-63
2022/11/01 06:51:56;;;;;;;20.33;10.45;;;;;;;;;;4811883;29;20034;-63
2022/11/01 06:54:22;;;;;;;;;;;;;;;;;;4816931;29;22703;-64
2022/11/01 06:56:48;;;;;;;18.33;10.35;;;;;;;;;;4818305;29;19968;-62
2022/11/01 06:59:15;;;;;;;19.05;10.15;;;;;;;;;;4813128;29;20065;-63
2022/11/01 07:01:42;;;;;;;16.08;9.68;;;;;;;;;;4817749;29;20051;-63
2022/11/01 07:04:08;;;;;;;20.10;10.23;;;;;;;;;;4813181;29;20061;-63
2022/11/01 07:06:34;;;;;;;;;;;;;;;;;;4820389;29;20038;-63
2022/11/01 07:09:01;;;;;;;17.15;10.35;;;;;;;;;;4818448;29;20349;-64
2022/11/01 07:11:27;;;;;;;17.58;9.32;;;;;;;;;;4811280;29;20042;-63
2022/11/01 07:13:53;;;;;;;;;;;;;;;;;;4818998;29;20037;-63
2022/11/01 07:16:19;;;;;;;21.60;9.32;;;;;;;;;;4816664;29;20446;-63
2022/11/01 07:18:48;;;;;;;;;;;;;;;;;;4819344;29;20072;-62
2022/11/01 07:21:14;;;;;;;16.40;9.00;;;;;;;;;;4814545;29;19917;-63
2022/11/01 07:23:40;;;;;;;;;;;;;;;;;;4822458;29;20101;-63
2022/11/01 07:26:06;;;;;;;17.15;8.75;;;;;;;;;;4816128;29;19916;-63
2022/11/01 07:28:32;;;;;;;20.15;11.40;;;;;;;;;;4833771;29;20041;-63
2022/11/01 07:30:59;;;;;;;36.33;30.23;;;;;;;;;;4823653;29;20045;-62
2022/11/01 07:33:25;;;;;;;;;;;;;;;;;;4814423;29;20057;-63
2022/11/01 07:35:51;;;;;;;26.35;19.10;;;;;;;;;;4818991;29;19923;-64
2022/11/01 07:38:17;;;;;;;27.80;19.73;;;;;;;;;;4810788;29;20060;-64
2022/11/01 07:40:48;;;;;;;;;;;;;;;;;;4819725;29;20049;-64
2022/11/01 07:43:14;;;;;;;40.00;29.48;;;;;;;;;;4807957;29;20367;-64
2022/11/01 07:45:40;;;;;;;41.22;33.40;;;;;;;;;;4824784;29;20041;-65
2022/11/01 07:48:09;;;;;;;;;;;;;;;;;;4814051;29;20072;-63
2022/11/01 07:50:35;;;;;;;48.70;34.75;;;;;;;;;;4819039;29;21135;-64
2022/11/01 07:53:04;;;;;;;30.75;24.85;;;;;;;;;;4822155;29;20426;-65
2022/11/01 07:55:30;;;;;;;38.20;27.15;;;;;;;;;;4836210;29;20053;-63
2022/11/01 07:57:58;;;;;;;;;;;;;;;;;;4825363;29;20036;-63
2022/11/01 08:00:25;;;;;;;28.77;18.50;;;;;;;;;;4820104;29;20691;-64
2022/11/01 08:02:51;;;;;;;29.48;18.35;;;;;;;;;;4823566;29;20029;-63
2022/11/01 08:05:17;;;;;;;27.05;16.27;;;;;;;;;;4819697;29;20074;-63
2022/11/01 08:07:47;;;;;;;22.60;12.35;;;;;;;;;;4821299;29;20772;-65
2022/11/01 08:10:13;;;;;;;23.35;13.65;;;;;;;;;;4818711;29;20073;-63
2022/11/01 08:12:43;;;;;;;21.90;11.55;;;;;;;;;;4833011;29;20047;-63
2022/11/01 08:15:09;;;;;;;22.35;12.93;;;;;;;;;;4815994;29;20029;-63
2022/11/01 08:17:35;;;;;;;17.95;10.73;;;;;;;;;;4819540;29;20076;-63
2022/11/01 08:20:05;;;;;;;18.90;10.80;;;;;;;;;;4819104;29;20072;-63
2022/11/01 08:22:32;;;;;;;20.67;10.50;;;;;;;;;;4818422;29;20042;-63
2022/11/01 08:24:59;;;;;;;24.38;10.73;;;;;;;;;;4817657;29;20534;-63
2022/11/01 08:27:25;;;;;;;21.73;9.25;;;;;;;;;;4821340;29;20353;-63
2022/11/01 08:29:51;;;;;;;16.35;9.05;;;;;;;;;;4815302;29;20037;-63
2022/11/01 08:32:21;;;;;;;14.85;8.52;;;;;;;;;;4813864;29;20788;-63
2022/11/01 08:34:47;;;;;;;15.50;8.77;;;;;;;;;;4816369;29;20038;-63
2022/11/01 08:37:13;;;;;;;16.95;8.50;;;;;;;;;;4813362;29;20232;-64
2022/11/01 08:39:40;;;;;;;19.88;8.77;;;;;;;;;;4813657;29;20136;-63
2022/11/01 08:42:06;;;;;;;18.15;9.50;;;;;;;;;;4804548;29;20033;-63
2022/11/01 08:44:33;;;;;;;17.92;8.55;;;;;;;;;;4810370;29;20045;-66
2022/11/01 08:47:00;;;;;;;22.33;10.25;;;;;;;;;;4806789;29;20034;-63
2022/11/01 08:49:27;;;;;;;19.08;9.63;;;;;;;;;;4808683;29;20049;-63
2022/11/01 08:51:53;;;;;;;15.20;7.75;;;;;;;;;;4808793;29;20049;-64
2022/11/01 08:54:19;;;;;;;17.13;9.13;;;;;;;;;;4807697;29;20293;-63
2022/11/01 08:56:45;;;;;;;20.55;9.18;;;;;;;;;;4810288;29;20110;-63
2022/11/01 08:59:12;;;;;;;16.77;9.40;;;;;;;;;;4811886;29;20108;-63
2022/11/01 09:01:38;;;;;;;16.85;8.85;;;;;;;;;;4827144;29;20050;-63
2022/11/01 09:04:05;;;;;;;17.30;8.60;;;;;;;;;;4807438;29;20113;-64
2022/11/01 09:06:31;;;;;;;18.40;8.10;;;;;;;;;;4812587;29;20034;-63
2022/11/01 09:08:57;;;;;;;17.77;7.90;;;;;;;;;;4813107;29;20037;-63
2022/11/01 09:11:25;;;;;;;16.63;8.23;;;;;;;;;;4809285;29;20076;-63
2022/11/01 09:13:56;;;;;;;17.90;8.95;;;;;;;;;;4806838;29;20038;-63
2022/11/01 09:16:22;;;;;;;15.25;7.88;;;;;;;;;;4814094;29;20476;-65
2022/11/01 09:18:48;;;;;;;17.55;8.20;;;;;;;;;;4809573;29;20034;-65
2022/11/01 09:21:16;;;;;;;15.88;8.55;;;;;;;;;;4809211;29;20053;-64
2022/11/01 09:23:42;;;;;;;16.65;9.02;;;;;;;;;;4812112;29;20037;-64
2022/11/01 09:26:10;;;;;;;16.15;8.07;;;;;;;;;;4810431;29;20061;-64
2022/11/01 09:28:36;;;;;;;20.13;9.13;;;;;;;;;;4816272;29;20049;-64
2022/11/01 09:31:04;;;;;;;16.38;7.80;;;;;;;;;;4820416;29;20307;-64
2022/11/01 09:33:31;;;;;;;15.23;7.25;;;;;;;;;;4809442;29;20053;-64
2022/11/01 09:35:57;;;;;;;14.40;8.18;;;;;;;;;;4815966;29;20181;-64
2022/11/01 09:38:23;;;;;;;13.05;6.88;;;;;;;;;;4804691;29;21180;-63
2022/11/01 09:40:59;;;;;;;17.23;6.70;;;;;;;;;;4814996;29;20025;-63
2022/11/01 09:43:27;;;;;;;18.63;6.60;;;;;;;;;;4813193;29;20565;-63
2022/11/01 09:45:57;;;;;;;16.55;6.55;;;;;;;;;;4815621;29;20046;-65
2022/11/01 09:48:24;;;;;;;14.85;5.80;;;;;;;;;;4815451;29;21297;-65
2022/11/01 09:50:50;;;;;;;13.85;6.50;;;;;;;;;;4817584;29;20035;-65
2022/11/01 09:53:18;;;;;;;17.02;6.38;;;;;;;;;;4818726;29;20021;-64
2022/11/01 09:55:49;;;;;;;15.30;7.28;;;;;;;;;;4816990;29;21082;-65
2022/11/01 09:58:27;;;;;;;12.63;6.40;;;;;;;;;;4815560;29;20038;-64
2022/11/01 10:01:12;;;;;;;15.15;6.65;;;;;;;;;;4828108;29;20494;-65
2022/11/01 10:03:58;;;;;;;14.45;7.22;;;;;;;;;;4812605;29;20069;-65
2022/11/01 10:06:37;;;;;;;17.02;6.65;;;;;;;;;;4812885;29;20045;-65
2022/11/01 10:09:11;;;;;;;14.88;7.28;;;;;;;;;;4827560;29;20968;-65
2022/11/01 10:11:40;;;;;;;15.18;6.70;;;;;;;;;;4818373;29;20187;-65
2022/11/01 10:14:14;;;;;;;16.27;7.45;;;;;;;;;;4811267;29;20114;-65
2022/11/01 10:16:43;;;;;;;13.50;7.40;;;;;;;;;;4812393;29;20034;-64
2022/11/01 10:19:17;;;;;;;17.98;7.10;;;;;;;;;;4812107;29;20113;-64
2022/11/01 10:21:46;;;;;;;14.73;6.65;;;;;;;;;;4810466;29;20033;-65
2022/11/01 10:24:35;;;;;;;17.52;7.75;;;;;;;;;;4814065;29;20200;-65
2022/11/01 10:27:10;;;;;;;18.60;7.07;;;;;;;;;;4779468;29;20578;-64
2022/11/01 10:29:56;;;;;;;18.38;6.35;;;;;;;;;;4760163;29;20069;-65
2022/11/01 10:32:32;;;;;;;15.52;6.47;;;;;;;;;;4766961;29;20051;-64
2022/11/01 10:35:01;;;;;;;15.85;6.18;;;;;;;;;;4759873;29;20529;-65
2022/11/01 10:37:30;;;;;;;13.65;5.93;;;;;;;;;;4769514;29;20046;-63
2022/11/01 10:39:59;;;;;;;13.18;5.93;;;;;;;;;;4772174;29;20031;-64
2022/11/01 10:42:27;;;;;;;13.35;5.30;;;;;;;;;;4770509;29;20566;-63
2022/11/01 10:44:55;;;;;;;11.70;4.82;;;;;;;;;;4761656;29;20100;-64
2022/11/01 10:47:22;;;;;;;16.55;5.68;;;;;;;;;;4772065;29;20354;-65
2022/11/01 10:49:49;;;;;;;13.13;5.60;;;;;;;;;;4772268;29;20073;-65
2022/11/01 10:52:17;;;;;;;16.40;5.65;;;;;;;;;;4771771;29;20089;-65
2022/11/01 10:54:44;;;;;;;14.23;5.00;;;;;;;;;;4761378;29;20059;-64
2022/11/01 10:57:22;;;;;;;15.52;5.30;;;;;;;;;;4771286;29;20053;-65
2022/11/01 10:59:48;;;;;;;14.98;5.20;;;;;;;;;;4776322;29;20111;-65
2022/11/01 11:02:33;;;;;;;14.90;5.13;;;;;;;;;;4771787;29;20180;-65
2022/11/01 11:04:59;;;;;;;12.10;4.35;;;;;;;;;;4780796;29;20125;-65
2022/11/01 11:07:29;;;;;;;13.77;4.80;;;;;;;;;;4777651;29;20107;-64
2022/11/01 11:09:55;;;;;;;13.48;4.75;;;;;;;;;;4780967;29;20038;-64
2022/11/01 11:12:23;;;;;;;12.65;4.88;;;;;;;;;;4779179;29;20046;-63
2022/11/01 11:14:52;;;;;;;15.43;4.60;;;;;;;;;;4781764;29;20030;-66
2022/11/01 11:17:27;;;;;;;14.65;4.28;;;;;;;;;;4782419;29;20447;-65
2022/11/01 11:19:54;;;;;;;13.40;4.05;;;;;;;;;;4781875;29;20034;-65
2022/11/01 11:22:25;;;;;;;13.20;3.72;;;;;;;;;;4773620;29;20044;-65
2022/11/01 11:24:58;;;;;;;12.77;3.97;;;;;;;;;;4794173;29;20264;-63
2022/11/01 11:27:34;;;;;;;14.52;3.90;;;;;;;;;;4778392;29;20374;-64
2022/11/01 11:30:01;;;;;;;15.00;4.18;;;;;;;;;;4783543;29;20484;-66
2022/11/01 11:32:29;;;;;;;14.93;4.05;;;;;;;;;;4784625;29;20305;-64
2022/11/01 11:34:57;;;;;;;12.27;3.78;;;;;;;;;;4812833;29;20256;-64
2022/11/01 11:37:28;;;;;;;13.25;3.83;;;;;;;;;;4826279;29;22140;-64
2022/11/01 11:40:13;;;;;;;13.05;4.15;;;;;;;;;;4810552;29;20560;-66
2022/11/01 11:42:39;;;;;;;13.70;4.57;;;;;;;;;;4810794;29;20038;-65
2022/11/01 11:45:20;;;;;;;14.45;4.03;;;;;;;;;;4805163;29;20795;-66
2022/11/01 11:47:50;;;;;;;12.93;3.97;;;;;;;;;;4809529;29;20038;-71
2022/11/01 11:50:20;;;;;;;12.43;4.07;;;;;;;;;;4806710;29;20402;-66
2022/11/01 11:52:51;;;;;;;12.38;4.07;;;;;;;;;;4810411;29;20660;-63
2022/11/01 11:55:38;;;;;;;10.40;3.63;;;;;;;;;;4805850;29;20045;-64
2022/11/01 11:58:14;;;;;;;11.60;3.95;;;;;;;;;;4807255;29;20042;-64
2022/11/01 12:00:43;;;;;;;11.98;3.90;;;;;;;;;;4813095;29;20057;-64
2022/11/01 12:03:12;;;;;;;13.00;4.13;;;;;;;;;;4807906;29;20246;-64
2022/11/01 12:05:51;;;;;;;14.90;4.55;;;;;;;;;;4815093;29;20411;-64
2022/11/01 12:08:36;;;;;;;11.98;4.13;;;;;;;;;;4808360;29;20470;-65
2022/11/01 12:11:02;;;;;;;12.38;4.50;;;;;;;;;;4824526;29;20150;-65
2022/11/01 12:13:33;;;;;;;13.73;4.60;;;;;;;;;;4804041;29;20080;-64
2022/11/01 12:16:06;;;;;;;15.00;4.50;;;;;;;;;;4813553;29;20041;-64
2022/11/01 12:18:32;;;;;;;17.48;4.63;;;;;;;;;;4814876;29;20076;-65
2022/11/01 12:20:59;;;;;;;13.32;4.60;;;;;;;;;;4811454;29;20106;-65
2022/11/01 12:23:34;;;;;;;13.10;3.80;;;;;;;;;;4808602;29;20042;-65
2022/11/01 12:26:01;;;;;;;12.20;4.15;;;;;;;;;;4816173;29;20369;-65
2022/11/01 12:28:30;;;;;;;13.95;4.38;;;;;;;;;;4813276;29;20493;-64
2022/11/01 12:30:59;;;;;;;19.10;4.70;;;;;;;;;;4801175;29;20355;-64
2022/11/01 12:33:33;;;;;;;11.80;4.03;;;;;;;;;;4807066;29;20335;-64
2022/11/01 13:15:03;;;;;;;13.00;3.97;;;;;;;;;;5592172;23;20371;-65
2022/11/01 13:17:35;;;;;;;12.40;4.63;;;;;;;;;;4843940;29;20681;-65
2022/11/01 13:20:34;;;;;;;14.40;4.75;;;;;;;;;;4842476;29;20061;-65
2022/11/01 13:23:11;;;;;;;13.38;4.80;;;;;;;;;;4783939;29;20136;-65
2022/11/01 13:25:42;;;;;;;14.07;5.40;;;;;;;;;;4785784;29;20058;-65
2022/11/01 13:28:17;;;;;;;14.40;4.60;;;;;;;;;;4764916;29;21028;-66
2022/11/01 13:30:43;;;;;;;;;;;;;;;;;;4784283;29;20330;-65
2022/11/01 13:33:48;;;;;;;11.02;4.30;;;;;;;;;;4760833;29;19917;-65
2022/11/01 13:36:14;;;;;;;14.35;4.40;;;;;;;;;;4679902;30;20091;-65
2022/11/01 13:38:40;;;;;;;11.48;4.30;;;;;;;;;;4697996;30;20096;-65
2022/11/01 13:41:06;;;;;;;12.45;4.63;;;;;;;;;;4692127;30;20516;-65
2022/11/01 13:43:55;;;;;;;12.68;4.28;;;;;;;;;;4692249;30;20103;-64
2022/11/01 13:46:22;;;;;;;12.75;4.85;;;;;;;;;;4643744;30;20297;-65
2022/11/01 13:48:49;;;;;;;12.20;4.25;;;;;;;;;;4644699;30;20164;-65
2022/11/01 13:51:38;;;;;;;15.18;4.93;;;;;;;;;;4646986;30;20419;-66
2022/11/01 13:54:11;;;;;;;13.25;4.72;;;;;;;;;;4630569;30;20055;-70
2022/11/01 13:56:42;;;;;;;10.57;4.40;;;;;;;;;;4631230;30;20042;-69
2022/11/01 13:59:34;;;;;;;11.73;4.95;;;;;;;;;;4665698;30;20041;-69
2022/11/01 14:02:19;;;;;;;13.55;4.65;;;;;;;;;;4669056;30;20181;-70
2022/11/01 14:04:45;;;;;;;;;;;;;;;;;;4677410;30;20517;-70
2022/11/01 14:07:12;;;;;;;13.95;5.40;;;;;;;;;;4685684;30;19926;-70
2022/11/01 14:09:42;;;;;;;14.90;4.97;;;;;;;;;;4692348;30;20735;-71
2022/11/01 14:12:12;;;;;;;13.70;4.65;;;;;;;;;;4718794;29;20059;-70
2022/11/01 14:14:54;;;;;;;12.80;4.28;;;;;;;;;;4767735;29;20062;-71
2022/11/01 14:17:25;;;;;;;11.13;4.15;;;;;;;;;;4762487;29;20134;-69
2022/11/01 14:19:54;;;;;;;11.55;4.20;;;;;;;;;;4775188;29;20122;-69
2022/11/01 14:22:23;;;;;;;12.27;4.50;;;;;;;;;;4775306;29;20030;-71
2022/11/01 14:24:59;;;;;;;11.13;4.38;;;;;;;;;;4833008;29;20030;-71
2022/11/01 14:27:30;;;;;;;15.90;5.70;;;;;;;;;;4828136;29;20044;-69
2022/11/01 14:29:57;;;;;;;13.35;4.95;;;;;;;;;;4828926;29;20041;-70
2022/11/01 14:32:27;;;;;;;17.92;6.25;;;;;;;;;;4831592;29;20045;-69
2022/11/01 14:40:30;;;;;;;13.48;5.28;;;;;;;;;;5830868;23;20016;-69
2022/11/01 14:43:00;;;;;;;19.63;6.15;;;;;;;;;;4832427;29;20532;-69
2022/11/01 14:45:34;;;;;;;15.77;5.20;;;;;;;;;;4829635;29;20048;-70
2022/11/01 14:48:03;;;;;;;13.27;5.72;;;;;;;;;;4835534;29;20491;-69
2022/11/01 14:50:38;;;;;;;13.98;5.63;;;;;;;;;;4832325;29;20286;-69
2022/11/01 14:53:11;;;;;;;16.05;5.10;;;;;;;;;;4830955;29;20030;-69
2022/11/01 14:55:37;;;;;;;17.17;5.88;;;;;;;;;;4836990;29;20541;-69
2022/11/01 14:58:20;;;;;;;14.35;5.13;;;;;;;;;;4835834;29;20034;-69
2022/11/01 15:00:51;;;;;;;13.32;4.78;;;;;;;;;;4831584;29;20029;-69
2022/11/01 15:03:17;;;;;;;12.73;5.05;;;;;;;;;;4826704;29;20429;-69
2022/11/01 15:05:45;;;;;;;14.93;5.90;;;;;;;;;;4834680;29;20110;-69
2022/11/01 15:08:30;;;;;;;14.07;5.60;;;;;;;;;;4833994;29;20089;-68
2022/11/01 15:10:58;;;;;;;15.55;7.72;;;;;;;;;;4831748;29;20043;-69
2022/11/01 15:13:26;;;;;;;20.30;9.93;;;;;;;;;;4829227;29;20037;-70
2022/11/01 15:16:02;;;;;;;20.80;13.63;;;;;;;;;;4836532;29;20037;-69
2022/11/01 15:18:28;;;;;;;22.20;14.77;;;;;;;;;;4831996;29;20048;-70
2022/11/01 15:20:56;;;;;;;31.98;22.80;;;;;;;;;;4833690;29;20057;-69
2022/11/01 15:23:27;;;;;;;18.98;13.95;;;;;;;;;;4842767;29;20026;-70
2022/11/01 15:25:58;;;;;;;18.20;12.48;;;;;;;;;;4831888;29;20038;-71
2022/11/01 15:28:26;;;;;;;16.13;9.25;;;;;;;;;;4829261;29;20545;-71
2022/11/01 15:30:56;;;;;;;14.80;7.18;;;;;;;;;;4832618;29;20070;-70
2022/11/01 15:33:28;;;;;;;14.73;6.18;;;;;;;;;;4830092;29;20919;-70
2022/11/01 15:35:56;;;;;;;13.27;5.70;;;;;;;;;;4831912;29;20481;-70
2022/11/01 15:38:23;;;;;;;17.58;5.75;;;;;;;;;;4844626;29;20363;-71
2022/11/01 15:40:49;;;;;;;13.73;4.70;;;;;;;;;;4835537;29;20041;-70
2022/11/01 15:43:17;;;;;;;10.38;4.40;;;;;;;;;;4830076;29;20104;-70